Riachao do Jacuipe, Brazil
Current Conditions -  °F | °C
As of 9:00 AM on Thursday 30 Oct 2014 (Local Time) from SBSV Reporting Station
Scattered Clouds Scattered Clouds  
Wind Chill: 82°   Ceiling: Unl
Heat Index: 86°   Visibility: 6mi
Dew Point: 70°   Wind: 17mph
Humidity: 66%   Direction: 70°ENE
Pressure: 30"   Gusts: NA
Location:  11.81°S, 39.39°W
Report Text: SBSV 301200Z 07015KT 9999 SCT017 28/21 Q1016
Loading
Personal Weather Stations






























Interactive Weather Map
Tropical Storm Tracking
New forecast layout! Learn more

10-Day Weather Forecast

Advertisements
Track Severe Weather on mobile